Time;durP1;ratioP1;P1;durP2;ratioP2;P2;SDS_P1;SDS_P2;PMS_P1;PMS_P2;Temp;Humidity;BMP_temperature;BMP_pressure;BME280_temperature;BME280_humidity;BME280_pressure;Samples;Min_cycle;Max_cycle;Signal;HPM_P1;HPM_P2
2023/12/14 00:01:50;;;;;;;;;;;18.80;60.30;;;;;;5060203;28;1324;-69
2023/12/14 00:04:15;;;;;;;;;;;18.90;60.40;;;;;;5060469;28;1111;-69
2023/12/14 00:06:41;;;;;;;;;;;18.80;60.40;;;;;;5060324;28;1553;-69
2023/12/14 00:09:08;;;;;;;;;;;18.80;60.40;;;;;;5059688;28;1644;-69
2023/12/14 00:11:37;;;;;;;;;;;18.80;60.40;;;;;;5064256;28;1355;-69
2023/12/14 00:14:02;;;;;;;;;;;18.80;60.40;;;;;;5082731;28;1914;-69
2023/12/14 00:16:28;;;;;;;;;;;18.80;60.50;;;;;;5061422;28;1474;-69
2023/12/14 00:18:53;;;;;;;;;;;18.80;60.50;;;;;;5059879;28;1361;-69
2023/12/14 00:21:19;;;;;;;;;;;18.80;60.50;;;;;;5042866;28;1408;-69
2023/12/14 00:23:44;;;;;;;;;;;18.80;60.50;;;;;;5055685;28;1243;-69
2023/12/14 00:26:10;;;;;;;;;;;18.80;60.50;;;;;;5058808;28;1574;-69
2023/12/14 00:28:35;;;;;;;;;;;18.80;60.50;;;;;;5059101;28;1579;-69
2023/12/14 00:31:01;;;;;;;;;;;18.80;60.60;;;;;;5092747;28;1595;-69
2023/12/14 00:33:26;;;;;;;;;;;18.80;60.70;;;;;;5059422;28;1965;-69
2023/12/14 00:35:52;;;;;;;;;;;18.80;60.60;;;;;;5060048;28;1572;-69
2023/12/14 00:38:17;;;;;;;;;;;18.80;60.60;;;;;;5060646;28;1352;-69
2023/12/14 00:40:42;;;;;;;;;;;18.80;60.60;;;;;;5056671;28;1282;-69
2023/12/14 00:43:08;;;;;;;;;;;18.80;60.70;;;;;;5062776;28;1726;-69
2023/12/14 00:45:33;;;;;;;;;;;18.80;60.70;;;;;;5058861;28;1464;-69
2023/12/14 00:47:59;;;;;;;;;;;18.80;61.10;;;;;;5055628;28;1271;-69
2023/12/14 00:50:24;;;;;;;;;;;18.80;60.70;;;;;;5058611;28;1307;-69
2023/12/14 00:52:50;;;;;;;;;;;18.80;60.70;;;;;;5057703;28;1249;-69
2023/12/14 00:55:15;;;;;;;;;;;18.80;60.70;;;;;;5059751;28;1965;-69
2023/12/14 00:57:41;;;;;;;;;;;18.70;60.70;;;;;;5087018;28;1332;-69
2023/12/14 01:00:06;;;;;;;;;;;18.70;60.70;;;;;;5057520;28;1287;-69
2023/12/14 01:02:32;;;;;;;;;;;18.70;60.80;;;;;;5062161;28;1304;-69
2023/12/14 01:04:58;;;;;;;;;;;18.70;60.80;;;;;;5058912;28;1296;-69
2023/12/14 01:07:23;;;;;;;;;;;18.70;60.80;;;;;;5059263;28;1226;-69
2023/12/14 01:09:49;;;;;;;;;;;18.70;60.80;;;;;;5059473;28;1278;-69
2023/12/14 01:12:14;;;;;;;;;;;18.70;60.80;;;;;;5058939;28;1722;-69
2023/12/14 01:14:40;;;;;;;;;;;18.70;60.80;;;;;;5058167;28;1911;-69
2023/12/14 01:17:05;;;;;;;;;;;18.70;60.90;;;;;;5055387;28;1336;-69
2023/12/14 01:19:31;;;;;;;;;;;18.70;60.90;;;;;;5055236;28;1382;-69
2023/12/14 01:21:56;;;;;;;;;;;18.70;60.90;;;;;;5057461;28;1462;-69
2023/12/14 01:24:21;;;;;;;;;;;18.70;60.90;;;;;;5058815;28;1577;-68
2023/12/14 01:26:47;;;;;;;;;;;18.70;60.90;;;;;;5057444;28;1538;-69
2023/12/14 01:29:12;;;;;;;;;;;18.70;60.90;;;;;;5091195;28;1393;-69
2023/12/14 01:31:38;;;;;;;;;;;18.70;60.90;;;;;;5045549;28;1368;-70
2023/12/14 01:34:03;;;;;;;;;;;18.70;61.00;;;;;;5060624;28;1886;-70
2023/12/14 01:36:29;;;;;;;;;;;18.70;61.00;;;;;;5059571;28;1270;-70
2023/12/14 01:38:54;;;;;;;;;;;18.70;61.00;;;;;;5072789;28;1458;-70
2023/12/14 01:41:20;;;;;;;;;;;18.70;61.00;;;;;;5055723;28;1269;-70
2023/12/14 01:43:45;;;;;;;;;;;18.70;61.00;;;;;;5059639;28;1309;-70
2023/12/14 01:46:11;;;;;;;;;;;18.70;61.00;;;;;;5057456;28;1000;-70
2023/12/14 01:48:36;;;;;;;;;;;18.70;61.10;;;;;;5092886;28;1291;-70
2023/12/14 01:51:02;;;;;;;;;;;18.70;61.10;;;;;;5062061;28;1462;-70
2023/12/14 01:53:28;;;;;;;;;;;18.70;61.10;;;;;;5088136;28;1898;-70
2023/12/14 01:55:53;;;;;;;;;;;18.70;61.10;;;;;;5059095;28;2375;-70
2023/12/14 01:58:19;;;;;;;;;;;18.70;61.10;;;;;;5057981;28;1433;-70
2023/12/14 02:01:03;;;;;;;;;;;18.70;61.10;;;;;;5091889;28;1350;-70
2023/12/14 02:03:29;;;;;;;;;;;18.70;61.20;;;;;;5060746;28;1220;-70
2023/12/14 02:05:55;;;;;;;;;;;18.70;61.20;;;;;;5057543;28;1368;-70
2023/12/14 02:08:20;;;;;;;;;;;18.70;61.20;;;;;;5057864;28;1320;-70
2023/12/14 02:10:46;;;;;;;;;;;18.70;61.20;;;;;;5090693;28;1503;-69
2023/12/14 02:13:11;;;;;;;;;;;18.60;61.10;;;;;;5057619;28;1342;-70
2023/12/14 02:15:37;;;;;;;;;;;18.70;61.20;;;;;;5057761;28;1886;-70
2023/12/14 02:18:02;;;;;;;;;;;18.70;61.20;;;;;;5056586;28;1741;-70
2023/12/14 02:20:28;;;;;;;;;;;18.60;61.20;;;;;;5089505;28;1481;-69
2023/12/14 02:22:54;;;;;;;;;;;18.60;61.20;;;;;;5058822;28;1444;-70
2023/12/14 02:25:19;;;;;;;;;;;18.60;61.20;;;;;;5088167;28;1354;-70
2023/12/14 02:27:45;;;;;;;;;;;18.60;61.20;;;;;;5057541;28;1484;-70
2023/12/14 02:30:11;;;;;;;;;;;18.60;61.20;;;;;;5053156;28;1662;-69
2023/12/14 02:32:37;;;;;;;;;;;18.60;61.20;;;;;;5057980;28;1098;-70
2023/12/14 02:35:02;;;;;;;;;;;18.60;61.20;;;;;;5055801;28;1964;-70
2023/12/14 02:37:28;;;;;;;;;;;18.60;61.30;;;;;;5054384;28;1148;-69
2023/12/14 02:39:53;;;;;;;;;;;18.60;61.30;;;;;;5055259;28;1309;-70
2023/12/14 02:42:19;;;;;;;;;;;18.60;61.30;;;;;;5058477;28;1110;-70
2023/12/14 02:44:44;;;;;;;;;;;18.60;61.30;;;;;;5057008;28;1335;-70
2023/12/14 02:47:10;;;;;;;;;;;18.60;61.40;;;;;;5088327;28;1232;-70
2023/12/14 02:49:35;;;;;;;;;;;18.60;61.30;;;;;;5052944;28;1298;-70
2023/12/14 02:52:01;;;;;;;;;;;18.60;61.40;;;;;;5061989;28;1245;-71
2023/12/14 02:54:26;;;;;;;;;;;18.60;61.40;;;;;;5058390;28;1961;-71
2023/12/14 02:56:52;;;;;;;;;;;18.60;61.40;;;;;;5056413;28;1221;-70
2023/12/14 02:59:17;;;;;;;;;;;18.60;61.40;;;;;;5055426;28;1421;-70
2023/12/14 03:01:43;;;;;;;;;;;18.60;61.50;;;;;;5054903;28;1514;-69
2023/12/14 03:04:08;;;;;;;;;;;18.60;61.40;;;;;;5079019;28;1455;-69
2023/12/14 03:06:33;;;;;;;;;;;18.60;61.50;;;;;;5090806;28;1630;-70
2023/12/14 03:08:59;;;;;;;;;;;18.60;61.50;;;;;;5052878;28;1379;-70
2023/12/14 03:11:25;;;;;;;;;;;18.60;61.50;;;;;;5085911;28;1441;-69
2023/12/14 03:13:50;;;;;;;;;;;18.60;61.50;;;;;;5056308;28;1914;-71
2023/12/14 03:16:19;;;;;;;;;;;18.60;61.50;;;;;;5059553;28;1337;-70
2023/12/14 03:18:44;;;;;;;;;;;18.60;61.50;;;;;;5056147;28;1303;-70
2023/12/14 03:21:10;;;;;;;;;;;18.60;61.50;;;;;;5090746;28;1291;-70
2023/12/14 03:23:35;;;;;;;;;;;18.60;61.60;;;;;;5094459;28;1610;-70
2023/12/14 03:26:01;;;;;;;;;;;18.60;61.50;;;;;;5094010;28;1484;-70
2023/12/14 03:28:27;;;;;;;;;;;18.60;61.60;;;;;;5063559;28;1459;-69
2023/12/14 03:30:52;;;;;;;;;;;18.60;61.60;;;;;;5096017;28;1292;-70
2023/12/14 03:33:17;;;;;;;;;;;18.60;61.60;;;;;;5062076;28;1166;-69
2023/12/14 03:35:43;;;;;;;;;;;18.60;61.60;;;;;;5062872;28;1965;-70
2023/12/14 03:38:09;;;;;;;;;;;18.60;61.60;;;;;;5094321;28;1474;-70
2023/12/14 03:40:35;;;;;;;;;;;18.60;61.60;;;;;;5060829;28;1408;-70
2023/12/14 03:43:01;;;;;;;;;;;18.60;61.60;;;;;;5061474;28;1259;-70
2023/12/14 03:45:26;;;;;;;;;;;18.60;61.60;;;;;;5060457;28;1537;-70
2023/12/14 03:47:51;;;;;;;;;;;18.60;61.60;;;;;;5059541;28;1603;-70
2023/12/14 03:50:17;;;;;;;;;;;18.60;61.70;;;;;;5059184;28;1293;-70
2023/12/14 03:52:43;;;;;;;;;;;18.60;61.70;;;;;;5090708;28;1468;-70
2023/12/14 03:55:08;;;;;;;;;;;18.50;61.60;;;;;;5060097;28;1898;-70
2023/12/14 03:57:34;;;;;;;;;;;18.60;61.70;;;;;;5061665;28;1588;-71
2023/12/14 03:59:59;;;;;;;;;;;18.60;61.70;;;;;;5078091;28;1366;-71
2023/12/14 04:02:25;;;;;;;;;;;18.50;61.70;;;;;;5058769;28;1376;-71
2023/12/14 04:04:50;;;;;;;;;;;18.60;61.70;;;;;;5058384;28;1374;-70
2023/12/14 04:07:16;;;;;;;;;;;18.50;61.70;;;;;;5090426;28;1353;-70
2023/12/14 04:09:41;;;;;;;;;;;18.50;61.70;;;;;;5093868;28;1303;-70
2023/12/14 04:12:07;;;;;;;;;;;18.60;61.70;;;;;;5060865;28;1575;-70
2023/12/14 04:14:32;;;;;;;;;;;18.50;61.70;;;;;;5060900;28;1894;-71
2023/12/14 04:16:58;;;;;;;;;;;18.50;61.70;;;;;;5062170;28;1320;-71
2023/12/14 04:19:23;;;;;;;;;;;18.50;61.70;;;;;;5061614;28;1566;-71
2023/12/14 04:21:49;;;;;;;;;;;18.50;61.70;;;;;;5062661;28;1552;-70
2023/12/14 04:24:14;;;;;;;;;;;18.50;61.70;;;;;;5062440;28;1653;-71
2023/12/14 04:26:40;;;;;;;;;;;18.50;61.70;;;;;;5093063;28;1556;-70
2023/12/14 04:29:06;;;;;;;;;;;18.50;61.70;;;;;;5059212;28;1387;-69
2023/12/14 04:31:32;;;;;;;;;;;18.50;62.10;;;;;;5059043;28;1269;-69
2023/12/14 04:33:57;;;;;;;;;;;18.50;61.80;;;;;;5060443;28;1906;-69
2023/12/14 04:36:23;;;;;;;;;;;18.50;61.80;;;;;;5055831;28;1151;-69
2023/12/14 04:38:48;;;;;;;;;;;18.50;61.80;;;;;;5058654;28;1776;-69
2023/12/14 04:41:14;;;;;;;;;;;18.50;61.80;;;;;;5088972;28;1366;-68
2023/12/14 04:43:39;;;;;;;;;;;18.50;61.80;;;;;;5058865;28;1248;-68
2023/12/14 04:46:06;;;;;;;;;;;18.50;61.80;;;;;;5061129;28;1583;-67
2023/12/14 04:48:31;;;;;;;;;;;18.50;61.80;;;;;;5056610;28;1371;-66
2023/12/14 04:50:57;;;;;;;;;;;18.50;61.80;;;;;;5056261;28;1370;-67
2023/12/14 04:53:22;;;;;;;;;;;18.50;61.90;;;;;;5060076;28;1357;-69
2023/12/14 04:55:48;;;;;;;;;;;18.50;61.90;;;;;;5061554;28;1910;-69
2023/12/14 04:58:13;;;;;;;;;;;18.50;61.90;;;;;;5060114;28;2294;-68
2023/12/14 05:00:39;;;;;;;;;;;18.50;61.90;;;;;;5075247;28;1646;-68
2023/12/14 05:03:04;;;;;;;;;;;18.50;62.00;;;;;;5058592;28;1285;-67
2023/12/14 05:05:30;;;;;;;;;;;18.50;62.00;;;;;;5055804;28;1277;-67
2023/12/14 05:07:55;;;;;;;;;;;18.50;61.90;;;;;;5054383;28;1304;-69
2023/12/14 05:10:20;;;;;;;;;;;18.50;61.80;;;;;;5056236;28;1330;-68
2023/12/14 05:12:46;;;;;;;;;;;18.50;61.90;;;;;;5091374;28;1235;-68
2023/12/14 05:15:11;;;;;;;;;;;18.60;61.80;;;;;;5057452;28;1918;-68
2023/12/14 05:17:37;;;;;;;;;;;18.70;61.80;;;;;;5059016;28;1377;-68
2023/12/14 05:20:04;;;;;;;;;;;18.80;61.80;;;;;;5087549;28;1352;-69
2023/12/14 05:22:29;;;;;;;;;;;18.90;62.30;;;;;;5059117;28;1210;-68
2023/12/14 05:24:55;;;;;;;;;;;19.00;61.20;;;;;;5060973;28;1569;-68
2023/12/14 05:27:20;;;;;;;;;;;19.10;60.80;;;;;;5089234;28;1416;-67
2023/12/14 05:29:46;;;;;;;;;;;19.30;60.40;;;;;;5055255;28;1432;-68
2023/12/14 05:32:12;;;;;;;;;;;19.50;60.10;;;;;;5057751;28;1479;-68
2023/12/14 05:34:37;;;;;;;;;;;19.60;59.80;;;;;;5057388;28;1917;-68
2023/12/14 05:37:03;;;;;;;;;;;19.70;59.50;;;;;;5090560;28;934;-68
2023/12/14 05:39:28;;;;;;;;;;;19.80;59.30;;;;;;5057245;28;1279;-68
2023/12/14 05:41:54;;;;;;;;;;;19.90;59.00;;;;;;5059664;28;1028;-67
2023/12/14 05:44:19;;;;;;;;;;;20.10;58.80;;;;;;5056899;28;1456;-67
2023/12/14 05:46:45;;;;;;;;;;;20.20;58.60;;;;;;5057191;28;1257;-68
2023/12/14 05:49:11;;;;;;;;;;;20.30;58.40;;;;;;5055460;28;1722;-69
2023/12/14 05:51:37;;;;;;;;;;;20.40;58.20;;;;;;5059361;28;1342;-69
2023/12/14 05:54:03;;;;;;;;;;;20.40;57.90;;;;;;5057677;28;1989;-69
2023/12/14 05:56:29;;;;;;;;;;;20.50;57.80;;;;;;5059757;28;1395;-69
2023/12/14 05:58:54;;;;;;;;;;;20.60;57.60;;;;;;5058493;28;1333;-69
2023/12/14 06:01:20;;;;;;;;;;;20.70;57.50;;;;;;5057986;28;1849;-69
2023/12/14 06:03:46;;;;;;;;;;;20.70;57.30;;;;;;5087474;28;1422;-69
2023/12/14 06:06:14;;;;;;;;;;;20.80;57.20;;;;;;5090526;28;1529;-70
2023/12/14 06:08:40;;;;;;;;;;;20.80;57.10;;;;;;5059255;28;1454;-70
2023/12/14 06:11:08;;;;;;;;;;;20.90;57.00;;;;;;5091137;28;1412;-70
2023/12/14 06:13:34;;;;;;;;;;;20.90;56.80;;;;;;5058613;28;1965;-69
2023/12/14 06:15:59;;;;;;;;;;;21.00;56.80;;;;;;5090346;28;1399;-70
2023/12/14 06:18:25;;;;;;;;;;;21.00;56.70;;;;;;5089164;28;1410;-70
2023/12/14 06:20:50;;;;;;;;;;;21.00;56.60;;;;;;5089809;28;1612;-70
2023/12/14 06:23:16;;;;;;;;;;;21.10;56.60;;;;;;5060671;28;1382;-71
2023/12/14 06:25:42;;;;;;;;;;;21.10;56.50;;;;;;5059250;28;1276;-71
2023/12/14 06:28:07;;;;;;;;;;;21.10;56.50;;;;;;5058014;28;1387;-70
2023/12/14 06:30:33;;;;;;;;;;;21.20;56.50;;;;;;5057954;28;1530;-70
2023/12/14 06:32:58;;;;;;;;;;;21.20;56.40;;;;;;5057741;28;1943;-70
2023/12/14 06:35:24;;;;;;;;;;;21.20;56.30;;;;;;5056511;28;1953;-70
2023/12/14 06:37:49;;;;;;;;;;;21.30;56.40;;;;;;5058370;28;1324;-71
2023/12/14 06:40:15;;;;;;;;;;;21.20;56.30;;;;;;5055852;28;1658;-71
2023/12/14 06:42:42;;;;;;;;;;;21.30;56.30;;;;;;5061222;28;1349;-71
2023/12/14 06:45:08;;;;;;;;;;;21.30;56.30;;;;;;5056771;28;1516;-71
2023/12/14 06:47:33;;;;;;;;;;;21.30;56.30;;;;;;5059344;28;1415;-69
2023/12/14 06:49:58;;;;;;;;;;;21.30;56.20;;;;;;5058564;28;1430;-70
2023/12/14 06:52:24;;;;;;;;;;;21.30;56.20;;;;;;5059349;28;1262;-69
2023/12/14 06:54:49;;;;;;;;;;;21.30;56.20;;;;;;5056591;28;1898;-70
2023/12/14 06:57:15;;;;;;;;;;;21.40;56.20;;;;;;5061357;28;1679;-70
2023/12/14 06:59:40;;;;;;;;;;;21.30;56.20;;;;;;5059619;28;1462;-70
2023/12/14 07:02:06;;;;;;;;;;;21.30;56.20;;;;;;5061483;28;1500;-69
2023/12/14 07:04:32;;;;;;;;;;;21.40;56.30;;;;;;5096375;28;1493;-70
2023/12/14 07:06:58;;;;;;;;;;;21.40;56.30;;;;;;5077011;28;1583;-68
2023/12/14 07:09:24;;;;;;;;;;;21.40;56.40;;;;;;5063415;28;1590;-69
2023/12/14 07:11:49;;;;;;;;;;;21.30;56.30;;;;;;5060475;28;1323;-68
2023/12/14 07:14:14;;;;;;;;;;;21.30;56.40;;;;;;5061281;28;1938;-68
2023/12/14 07:16:41;;;;;;;;;;;21.30;56.50;;;;;;5058310;28;1405;-69
2023/12/14 07:19:06;;;;;;;;;;;21.30;56.50;;;;;;5061928;28;1439;-68
2023/12/14 07:21:32;;;;;;;;;;;21.30;56.60;;;;;;5092828;28;1590;-68
2023/12/14 07:23:57;;;;;;;;;;;21.30;56.60;;;;;;5062038;28;1833;-70
2023/12/14 07:26:23;;;;;;;;;;;21.20;56.70;;;;;;5058955;28;1849;-68
2023/12/14 07:28:48;;;;;;;;;;;21.20;56.70;;;;;;5062445;28;1428;-69
2023/12/14 07:31:14;;;;;;;;;;;21.10;56.70;;;;;;5060570;28;1739;-69
2023/12/14 07:33:39;;;;;;;;;;;21.20;56.80;;;;;;5059419;28;1894;-69
2023/12/14 07:36:05;;;;;;;;;;;21.20;56.90;;;;;;5059435;28;1247;-69
2023/12/14 07:38:31;;;;;;;;;;;21.10;56.90;;;;;;5059905;28;1260;-70
2023/12/14 07:40:56;;;;;;;;;;;21.10;56.90;;;;;;5058678;28;1134;-69
2023/12/14 07:43:22;;;;;;;;;;;21.10;57.00;;;;;;5091373;28;1474;-69
2023/12/14 07:45:48;;;;;;;;;;;21.00;57.00;;;;;;5059788;28;1570;-69
2023/12/14 07:48:13;;;;;;;;;;;21.00;57.10;;;;;;5061814;28;1974;-67
2023/12/14 07:50:42;;;;;;;;;;;21.00;57.20;;;;;;5058332;28;1893;-71
2023/12/14 07:53:07;;;;;;;;;;;21.00;57.20;;;;;;5060568;28;2031;-69
2023/12/14 07:55:36;;;;;;;;;;;20.90;57.20;;;;;;5060023;28;2284;-70
2023/12/14 07:58:01;;;;;;;;;;;20.90;57.30;;;;;;5092291;28;2046;-69
2023/12/14 08:00:27;;;;;;;;;;;20.90;57.70;;;;;;5062359;28;1601;-69
2023/12/14 08:02:52;;;;;;;;;;;20.90;58.50;;;;;;5062894;28;1400;-71
2023/12/14 08:05:18;;;;;;;;;;;20.90;58.80;;;;;;5062908;28;1448;-70
2023/12/14 08:07:45;;;;;;;;;;;20.90;58.50;;;;;;5061498;28;1105;-70
2023/12/14 08:10:10;;;;;;;;;;;20.80;58.60;;;;;;5097015;28;1390;-70
2023/12/14 08:12:36;;;;;;;;;;;20.80;58.60;;;;;;5092236;28;1531;-69
2023/12/14 08:15:02;;;;;;;;;;;20.80;58.80;;;;;;5063284;28;1965;-69
2023/12/14 08:17:27;;;;;;;;;;;20.80;58.90;;;;;;5092659;28;1567;-69
2023/12/14 08:19:53;;;;;;;;;;;20.80;59.00;;;;;;5060759;28;1418;-70
2023/12/14 08:22:21;;;;;;;;;;;20.70;59.00;;;;;;5059164;28;1330;-71
2023/12/14 08:24:47;;;;;;;;;;;20.70;59.20;;;;;;5060550;28;1291;-70
2023/12/14 08:27:15;;;;;;;;;;;20.70;59.30;;;;;;5061502;28;1526;-70
2023/12/14 08:29:40;;;;;;;;;;;20.70;59.40;;;;;;5058687;28;1368;-70
2023/12/14 08:32:06;;;;;;;;;;;20.60;59.50;;;;;;5091617;28;1480;-70
2023/12/14 08:34:32;;;;;;;;;;;20.60;59.50;;;;;;5061956;28;1926;-70
2023/12/14 08:36:57;;;;;;;;;;;20.70;59.70;;;;;;5058732;28;1252;-70
2023/12/14 08:39:22;;;;;;;;;;;20.60;59.90;;;;;;5057432;28;1388;-69
2023/12/14 08:41:51;;;;;;;;;;;20.60;59.90;;;;;;5061219;28;1205;-71
2023/12/14 08:44:16;;;;;;;;;;;20.60;59.90;;;;;;5066408;28;1188;-70
2023/12/14 08:46:45;;;;;;;;;;;20.60;60.00;;;;;;5059936;28;1161;-72
2023/12/14 08:49:11;;;;;;;;;;;20.60;60.60;;;;;;5061137;28;1337;-70
2023/12/14 08:51:38;;;;;;;;;;;20.50;60.60;;;;;;5090537;28;1631;-71
2023/12/14 08:54:04;;;;;;;;;;;20.50;60.90;;;;;;5061564;28;1910;-71
2023/12/14 08:56:32;;;;;;;;;;;20.50;60.80;;;;;;5059954;28;1261;-71
2023/12/14 08:58:59;;;;;;;;;;;20.50;60.80;;;;;;5058727;28;1650;-68
2023/12/14 09:01:24;;;;;;;;;;;20.50;61.10;;;;;;5060315;28;1588;-70
2023/12/14 09:03:50;;;;;;;;;;;20.50;60.90;;;;;;5058193;28;1354;-71
2023/12/14 09:06:16;;;;;;;;;;;20.50;61.10;;;;;;5061052;28;1375;-70
2023/12/14 09:08:41;;;;;;;;;;;20.50;61.10;;;;;;5060077;28;1390;-69
2023/12/14 09:11:07;;;;;;;;;;;20.60;61.90;;;;;;5061117;28;1437;-70
2023/12/14 09:13:32;;;;;;;;;;;20.60;61.10;;;;;;5058464;28;1536;-70
2023/12/14 09:15:58;;;;;;;;;;;20.50;61.10;;;;;;5061446;28;1977;-68
2023/12/14 09:18:23;;;;;;;;;;;20.60;61.00;;;;;;5060583;28;1354;-69
2023/12/14 09:20:49;;;;;;;;;;;20.60;61.20;;;;;;5058853;28;1362;-68
2023/12/14 09:23:15;;;;;;;;;;;20.50;61.20;;;;;;5091485;28;1680;-68
2023/12/14 09:25:41;;;;;;;;;;;20.60;61.30;;;;;;5058392;28;1931;-69
2023/12/14 09:28:06;;;;;;;;;;;20.60;61.30;;;;;;5070500;28;1482;-71
2023/12/14 09:30:31;;;;;;;;;;;20.60;61.30;;;;;;5059260;28;1268;-71
2023/12/14 09:32:57;;;;;;;;;;;20.50;61.30;;;;;;5057132;28;1330;-70
2023/12/14 09:35:23;;;;;;;;;;;20.60;61.40;;;;;;5062850;28;1946;-69
2023/12/14 09:37:49;;;;;;;;;;;20.60;61.40;;;;;;5058096;28;1336;-71
2023/12/14 09:40:16;;;;;;;;;;;20.60;61.30;;;;;;5057644;28;1436;-70
2023/12/14 09:42:42;;;;;;;;;;;20.50;61.20;;;;;;5089905;28;1267;-69
2023/12/14 09:45:08;;;;;;;;;;;20.50;61.40;;;;;;5056639;28;1478;-68
2023/12/14 09:47:34;;;;;;;;;;;20.50;61.30;;;;;;5059201;28;1315;-70
2023/12/14 09:49:59;;;;;;;;;;;20.60;61.30;;;;;;5090507;28;1323;-71
2023/12/14 09:52:25;;;;;;;;;;;20.50;61.20;;;;;;5081830;28;1288;-71
2023/12/14 09:54:50;;;;;;;;;;;20.50;61.30;;;;;;5056016;28;1961;-69
2023/12/14 09:57:18;;;;;;;;;;;20.50;61.20;;;;;;5061119;28;1573;-69
2023/12/14 09:59:53;;;;;;;;;;;20.50;61.30;;;;;;5061392;28;1459;-70
2023/12/14 10:02:19;;;;;;;;;;;20.50;61.30;;;;;;5090842;28;1523;-70
2023/12/14 10:04:45;;;;;;;;;;;20.50;61.30;;;;;;5057288;28;1448;-70
2023/12/14 10:07:10;;;;;;;;;;;20.50;61.30;;;;;;5057018;28;1437;-70
2023/12/14 10:09:37;;;;;;;;;;;20.50;61.30;;;;;;5058301;28;1311;-69
2023/12/14 10:12:06;;;;;;;;;;;20.50;61.40;;;;;;5091801;28;1255;-69
2023/12/14 10:14:31;;;;;;;;;;;20.50;61.40;;;;;;5058275;28;1901;-69
2023/12/14 10:16:58;;;;;;;;;;;20.50;61.40;;;;;;5056762;28;1498;-70
2023/12/14 10:19:23;;;;;;;;;;;20.50;61.60;;;;;;5078190;28;1494;-70
2023/12/14 10:21:49;;;;;;;;;;;20.50;61.90;;;;;;5059679;28;1295;-69
2023/12/14 10:24:15;;;;;;;;;;;20.60;62.00;;;;;;5089493;28;1433;-69
2023/12/14 10:26:40;;;;;;;;;;;20.50;62.00;;;;;;5091653;28;1350;-69
2023/12/14 10:29:06;;;;;;;;;;;20.50;62.20;;;;;;5056612;28;1394;-68
2023/12/14 10:31:37;;;;;;;;;;;20.50;62.00;;;;;;5054580;28;1479;-69
2023/12/14 10:34:06;;;;;;;;;;;20.50;61.90;;;;;;5060310;28;1938;-70
2023/12/14 10:36:32;;;;;;;;;;;20.50;61.90;;;;;;5090776;28;1312;-69
2023/12/14 10:38:58;;;;;;;;;;;20.50;61.90;;;;;;5089505;28;1532;-69
2023/12/14 10:41:23;;;;;;;;;;;20.50;62.20;;;;;;5057566;28;1359;-68
2023/12/14 10:43:50;;;;;;;;;;;20.50;62.10;;;;;;5056396;28;1409;-68
2023/12/14 10:46:15;;;;;;;;;;;20.50;62.10;;;;;;5057907;28;1336;-68
2023/12/14 10:48:42;;;;;;;;;;;20.50;62.10;;;;;;5044451;28;1571;-68
2023/12/14 10:51:08;;;;;;;;;;;20.60;62.20;;;;;;5055452;28;1536;-70
2023/12/14 10:53:34;;;;;;;;;;;20.60;62.00;;;;;;5043943;28;1684;-69
2023/12/14 10:56:00;;;;;;;;;;;20.50;61.90;;;;;;5089782;28;1996;-70
2023/12/14 10:58:25;;;;;;;;;;;20.60;62.10;;;;;;5088912;28;1374;-70
2023/12/14 11:00:58;;;;;;;;;;;20.60;62.30;;;;;;5059150;28;1425;-69
2023/12/14 11:03:23;;;;;;;;;;;20.60;62.20;;;;;;5091707;28;1527;-69
2023/12/14 11:05:49;;;;;;;;;;;20.60;62.00;;;;;;5054095;28;899;-68
2023/12/14 11:08:14;;;;;;;;;;;20.60;62.10;;;;;;5058632;28;1323;-69
2023/12/14 11:10:40;;;;;;;;;;;20.50;62.10;;;;;;5050842;28;1075;-68
2023/12/14 11:13:13;;;;;;;;;;;20.50;62.10;;;;;;5059386;28;1223;-68
2023/12/14 11:15:45;;;;;;;;;;;20.50;62.10;;;;;;5058739;28;1953;-68
2023/12/14 11:18:11;;;;;;;;;;;20.50;62.20;;;;;;5057675;28;1433;-68
2023/12/14 11:20:45;;;;;;;;;;;20.50;62.20;;;;;;5056669;28;1256;-68
2023/12/14 11:23:31;;;;;;;;;;;20.50;62.30;;;;;;5056657;28;1456;-70
2023/12/14 11:26:06;;;;;;;;;;;20.50;62.40;;;;;;5058988;28;1365;-70
2023/12/14 11:28:38;;;;;;;;;;;20.50;62.40;;;;;;5058739;28;1395;-69
2023/12/14 11:31:07;;;;;;;;;;;20.50;62.50;;;;;;5057965;28;1462;-70
2023/12/14 11:33:33;;;;;;;;;;;20.50;62.40;;;;;;5088277;28;1489;-71
2023/12/14 11:35:58;;;;;;;;;;;20.50;62.50;;;;;;5055061;28;1957;-70
2023/12/14 11:38:24;;;;;;;;;;;20.40;62.50;;;;;;5089199;28;1411;-69
2023/12/14 11:40:50;;;;;;;;;;;20.40;62.60;;;;;;5088809;28;1398;-71
2023/12/14 11:43:15;;;;;;;;;;;20.40;62.60;;;;;;5090713;28;1470;-70
2023/12/14 11:45:41;;;;;;;;;;;20.40;62.90;;;;;;5059844;28;1454;-71
2023/12/14 11:48:07;;;;;;;;;;;20.40;62.80;;;;;;5093191;28;2353;-71
2023/12/14 11:50:35;;;;;;;;;;;20.40;62.80;;;;;;5093307;28;1504;-71
2023/12/14 11:53:03;;;;;;;;;;;20.40;62.90;;;;;;5059464;28;1385;-71
2023/12/14 11:55:28;;;;;;;;;;;20.40;62.80;;;;;;5077230;28;1901;-70
2023/12/14 11:57:54;;;;;;;;;;;20.40;62.80;;;;;;5093561;28;1429;-70
2023/12/14 12:00:22;;;;;;;;;;;20.40;62.80;;;;;;5060351;28;1911;-70
2023/12/14 12:02:48;;;;;;;;;;;20.40;62.90;;;;;;5047183;28;1376;-69
2023/12/14 12:05:18;;;;;;;;;;;20.30;62.90;;;;;;5081453;28;1595;-69
2023/12/14 12:07:44;;;;;;;;;;;20.30;62.90;;;;;;5062519;28;1931;-68
2023/12/14 12:10:10;;;;;;;;;;;20.30;63.00;;;;;;5059349;28;1382;-70
2023/12/14 12:12:35;;;;;;;;;;;20.30;63.00;;;;;;5091511;28;1576;-70
2023/12/14 12:15:00;;;;;;;;;;;20.30;63.10;;;;;;5043581;28;1918;-69
2023/12/14 12:17:26;;;;;;;;;;;20.30;63.50;;;;;;5058985;28;1447;-69
2023/12/14 12:19:52;;;;;;;;;;;20.30;63.60;;;;;;5058205;28;1777;-69
2023/12/14 12:22:17;;;;;;;;;;;20.30;63.70;;;;;;5059882;28;1373;-68
2023/12/14 12:24:43;;;;;;;;;;;20.30;63.80;;;;;;5056102;28;1378;-68
2023/12/14 12:27:09;;;;;;;;;;;20.30;63.80;;;;;;5061286;28;1462;-70
2023/12/14 12:29:34;;;;;;;;;;;20.30;63.90;;;;;;5059761;28;1720;-70
2023/12/14 12:32:00;;;;;;;;;;;20.30;64.10;;;;;;5056029;28;1136;-70
2023/12/14 12:34:25;;;;;;;;;;;20.30;64.20;;;;;;5059489;28;1969;-71
2023/12/14 12:36:51;;;;;;;;;;;20.30;64.20;;;;;;5058372;28;1369;-70
2023/12/14 12:39:16;;;;;;;;;;;20.30;64.20;;;;;;5059276;28;1350;-70
2023/12/14 12:41:42;;;;;;;;;;;20.30;64.30;;;;;;5059694;28;1476;-71
2023/12/14 12:44:08;;;;;;;;;;;20.30;64.40;;;;;;5060487;28;1341;-71
2023/12/14 12:46:34;;;;;;;;;;;20.30;64.40;;;;;;5060145;28;1448;-70
2023/12/14 12:49:00;;;;;;;;;;;20.30;64.50;;;;;;5088735;28;1343;-71
2023/12/14 12:51:26;;;;;;;;;;;20.30;64.50;;;;;;5056915;28;1353;-70
2023/12/14 12:53:52;;;;;;;;;;;20.30;64.40;;;;;;5089597;28;2003;-69
2023/12/14 12:56:17;;;;;;;;;;;20.30;64.50;;;;;;5082869;28;1503;-69
2023/12/14 12:58:43;;;;;;;;;;;20.30;64.50;;;;;;5058476;28;1648;-69
2023/12/14 13:01:08;;;;;;;;;;;20.30;64.70;;;;;;5091912;28;1425;-68
2023/12/14 13:03:34;;;;;;;;;;;20.30;64.60;;;;;;5057428;28;1880;-68
2023/12/14 13:05:59;;;;;;;;;;;20.30;63.00;;;;;;5059904;28;1261;-68
2023/12/14 13:08:25;;;;;;;;;;;20.20;58.40;;;;;;5060627;28;1345;-68
2023/12/14 13:10:51;;;;;;;;;;;20.20;56.80;;;;;;5090189;28;1554;-68
2023/12/14 13:13:17;;;;;;;;;;;20.10;56.60;;;;;;5061971;28;1597;-68
2023/12/14 13:15:43;;;;;;;;;;;20.00;55.50;;;;;;5060724;28;1914;-69
2023/12/14 13:18:09;;;;;;;;;;;20.00;55.00;;;;;;5056520;28;1309;-68
2023/12/14 13:20:35;;;;;;;;;;;19.90;54.70;;;;;;5056738;28;1276;-68
2023/12/14 13:23:01;;;;;;;;;;;19.90;54.30;;;;;;5061812;28;1461;-69
2023/12/14 13:25:26;;;;;;;;;;;19.90;54.00;;;;;;5056204;28;1286;-68
2023/12/14 13:27:51;;;;;;;;;;;19.80;53.80;;;;;;5090105;28;1526;-68
2023/12/14 13:30:17;;;;;;;;;;;19.80;53.60;;;;;;5061928;28;1312;-69
2023/12/14 13:32:43;;;;;;;;;;;19.70;53.50;;;;;;5057822;28;1500;-69
2023/12/14 13:35:09;;;;;;;;;;;19.70;53.20;;;;;;5057266;28;1925;-69
2023/12/14 13:37:34;;;;;;;;;;;19.70;53.20;;;;;;5058358;28;1394;-69
2023/12/14 13:40:00;;;;;;;;;;;19.70;53.10;;;;;;5059704;28;1393;-68
2023/12/14 13:42:25;;;;;;;;;;;19.60;52.80;;;;;;5087944;28;1385;-69
2023/12/14 13:44:51;;;;;;;;;;;19.60;52.70;;;;;;5058028;28;1534;-69
2023/12/14 13:47:16;;;;;;;;;;;19.50;52.50;;;;;;5057880;28;1368;-70
2023/12/14 13:49:42;;;;;;;;;;;19.50;52.30;;;;;;5058489;28;1366;-68
2023/12/14 13:52:08;;;;;;;;;;;19.50;52.20;;;;;;5057460;28;1823;-68
2023/12/14 13:54:36;;;;;;;;;;;19.50;52.00;;;;;;5056075;28;1898;-68
2023/12/14 13:57:02;;;;;;;;;;;19.50;52.10;;;;;;5088477;28;1475;-68
2023/12/14 13:59:27;;;;;;;;;;;19.40;51.90;;;;;;5089973;28;1395;-69
2023/12/14 14:01:53;;;;;;;;;;;19.40;51.80;;;;;;5090309;28;1356;-69
2023/12/14 14:04:18;;;;;;;;;;;19.40;51.90;;;;;;5057841;28;1464;-69
2023/12/14 14:06:44;;;;;;;;;;;19.40;52.00;;;;;;5055751;28;1442;-70
2023/12/14 14:09:10;;;;;;;;;;;19.30;52.10;;;;;;5055775;28;1354;-68
2023/12/14 14:11:36;;;;;;;;;;;19.30;51.90;;;;;;5057485;28;1283;-68
2023/12/14 14:14:01;;;;;;;;;;;19.30;51.90;;;;;;5058343;28;1910;-68
2023/12/14 14:16:27;;;;;;;;;;;19.30;51.90;;;;;;5089235;28;1479;-68
2023/12/14 14:18:52;;;;;;;;;;;19.30;51.90;;;;;;5058348;28;1284;-67
2023/12/14 14:21:18;;;;;;;;;;;19.30;51.90;;;;;;5057449;28;1296;-69
2023/12/14 14:23:44;;;;;;;;;;;19.30;52.20;;;;;;5058933;28;935;-68